createdAt,value
2022-11-14T00:00:47.610Z,10.98
2022-11-14T00:03:32.883Z,10.90
2022-11-14T00:06:18.222Z,10.90
2022-11-14T00:09:03.781Z,10.94
2022-11-14T00:11:49.188Z,11.02
2022-11-14T00:14:34.412Z,11.10
2022-11-14T00:17:19.750Z,11.13
2022-11-14T00:20:07.403Z,11.12
2022-11-14T00:22:52.777Z,11.15
2022-11-14T00:25:38.247Z,11.18
2022-11-14T00:28:23.363Z,11.08
2022-11-14T00:31:10.388Z,11.11
2022-11-14T00:33:55.890Z,11.15
2022-11-14T00:36:40.945Z,11.20
2022-11-14T00:39:26.176Z,11.15
2022-11-14T00:42:11.557Z,11.11
2022-11-14T00:44:57.114Z,11.17
2022-11-14T00:47:42.254Z,11.20
2022-11-14T00:50:27.646Z,11.19
2022-11-14T00:53:12.953Z,11.21
2022-11-14T00:55:58.090Z,11.23
2022-11-14T00:58:43.261Z,11.30
2022-11-14T01:01:28.501Z,11.16
2022-11-14T01:04:14.110Z,11.08
2022-11-14T01:06:59.654Z,10.73
2022-11-14T01:09:45.337Z,10.48
2022-11-14T01:12:30.526Z,10.47
2022-11-14T01:15:16.260Z,10.52
2022-11-14T01:18:02.280Z,10.44
2022-11-14T01:20:49.110Z,10.47
2022-11-14T01:23:34.562Z,10.42
2022-11-14T01:26:20.057Z,10.48
2022-11-14T01:29:05.284Z,10.48
2022-11-14T01:31:50.790Z,10.60
2022-11-14T01:34:35.959Z,10.61
2022-11-14T01:37:21.884Z,10.72
2022-11-14T01:40:07.895Z,10.61
2022-11-14T01:43:24.998Z,10.62
2022-11-14T01:46:15.972Z,10.64
2022-11-14T01:49:24.514Z,10.46
2022-11-14T01:52:30.577Z,10.38
2022-11-14T01:55:15.844Z,10.13
2022-11-14T01:58:00.986Z,10.28
2022-11-14T02:00:46.038Z,10.44
2022-11-14T02:03:31.753Z,10.52
2022-11-14T02:06:20.220Z,10.52
2022-11-14T02:09:07.139Z,10.46
2022-11-14T02:11:55.199Z,10.26
2022-11-14T02:14:45.181Z,10.29
2022-11-14T02:17:31.240Z,10.34
2022-11-14T02:20:28.750Z,10.33
2022-11-14T02:23:14.880Z,10.46
2022-11-14T02:26:00.361Z,10.55
2022-11-14T02:28:46.955Z,10.59
2022-11-14T02:31:32.211Z,10.55
2022-11-14T02:34:19.950Z,10.47
2022-11-14T02:37:06.288Z,10.52
2022-11-14T02:39:51.725Z,10.56
2022-11-14T02:42:36.949Z,10.61
2022-11-14T02:45:22.505Z,10.57
2022-11-14T02:48:07.806Z,10.57
2022-11-14T02:50:53.000Z,10.54
2022-11-14T02:53:38.239Z,10.52
2022-11-14T02:56:23.856Z,10.62
2022-11-14T02:59:09.301Z,10.71
2022-11-14T03:01:54.607Z,10.78
2022-11-14T03:04:40.021Z,10.80
2022-11-14T03:07:25.528Z,10.78
2022-11-14T03:10:11.195Z,10.75
2022-11-14T03:12:56.792Z,10.72
2022-11-14T03:15:42.459Z,10.78
2022-11-14T03:18:28.606Z,10.77
2022-11-14T03:21:17.646Z,10.77
2022-11-14T03:24:03.271Z,10.75
2022-11-14T03:26:48.629Z,10.81
2022-11-14T03:29:33.899Z,10.68
2022-11-14T03:32:19.264Z,10.72
2022-11-14T03:35:04.730Z,10.83
2022-11-14T03:37:53.854Z,10.81
2022-11-14T03:40:41.244Z,10.73
2022-11-14T03:43:30.084Z,10.58
2022-11-14T03:46:17.954Z,10.56
2022-11-14T03:49:06.504Z,10.59
2022-11-14T03:51:51.729Z,10.63
2022-11-14T03:54:36.972Z,10.50
2022-11-14T03:57:22.329Z,10.47
2022-11-14T04:00:09.435Z,10.44
2022-11-14T04:02:55.971Z,10.43
2022-11-14T04:05:45.038Z,10.46
2022-11-14T04:08:30.544Z,10.50
2022-11-14T04:11:16.160Z,10.57
2022-11-14T04:14:01.790Z,10.58
2022-11-14T04:16:47.188Z,10.42
2022-11-14T04:19:32.626Z,10.36
2022-11-14T04:22:18.083Z,10.40
2022-11-14T04:25:04.174Z,10.29
2022-11-14T04:27:49.454Z,10.35
2022-11-14T04:30:35.020Z,10.39
2022-11-14T04:33:20.748Z,10.33
2022-11-14T04:36:06.111Z,10.36
2022-11-14T04:38:51.174Z,10.35
2022-11-14T04:41:36.663Z,10.44
2022-11-14T04:44:21.981Z,10.44
2022-11-14T04:47:10.310Z,10.48
2022-11-14T04:49:55.758Z,10.57
2022-11-14T04:52:41.032Z,10.64
2022-11-14T04:55:26.262Z,10.73
2022-11-14T04:58:11.596Z,10.70
2022-11-14T05:01:00.223Z,10.70
2022-11-14T05:03:48.465Z,10.59
2022-11-14T05:06:33.646Z,10.64
2022-11-14T05:09:19.195Z,10.72
2022-11-14T05:12:04.706Z,10.71
2022-11-14T05:14:50.065Z,10.78
2022-11-14T05:17:35.243Z,10.79
2022-11-14T05:20:20.523Z,10.82
2022-11-14T05:23:06.064Z,10.92
2022-11-14T05:26:02.246Z,10.89
2022-11-14T05:28:47.600Z,10.85
2022-11-14T05:31:32.925Z,10.93
2022-11-14T05:34:17.974Z,10.86
2022-11-14T05:37:06.360Z,10.82
2022-11-14T05:39:51.611Z,10.82
2022-11-14T05:42:36.682Z,10.83
2022-11-14T05:45:22.114Z,10.63
2022-11-14T05:48:07.260Z,10.74
2022-11-14T05:50:56.184Z,10.74
2022-11-14T05:53:41.870Z,10.71
2022-11-14T05:56:27.831Z,10.75
2022-11-14T05:59:13.499Z,10.89
2022-11-14T06:01:58.756Z,10.99
2022-11-14T06:04:44.445Z,11.08
2022-11-14T06:07:29.581Z,11.16
2022-11-14T06:10:15.153Z,11.13
2022-11-14T06:13:00.278Z,11.12
2022-11-14T06:15:46.260Z,11.01
2022-11-14T06:18:32.846Z,11.02
2022-11-14T06:21:20.234Z,10.95
2022-11-14T06:24:05.731Z,10.94
2022-11-14T06:26:51.111Z,10.90
2022-11-14T06:29:36.584Z,10.93
2022-11-14T06:32:21.961Z,10.96
2022-11-14T06:35:08.465Z,10.93
2022-11-14T06:37:54.055Z,10.94
2022-11-14T06:40:39.372Z,10.97
2022-11-14T06:43:24.481Z,10.99
2022-11-14T06:46:12.156Z,10.93
2022-11-14T06:48:57.419Z,10.94
2022-11-14T06:51:42.660Z,10.97
2022-11-14T06:54:27.778Z,11.03
2022-11-14T06:57:12.835Z,11.07
2022-11-14T06:59:58.229Z,11.15
2022-11-14T07:02:46.110Z,11.19
2022-11-14T07:05:31.128Z,11.16
2022-11-14T07:08:20.851Z,11.17
2022-11-14T07:11:11.894Z,11.10
2022-11-14T07:14:00.446Z,11.13
2022-11-14T07:16:46.866Z,11.12
2022-11-14T07:19:32.211Z,11.02
2022-11-14T07:22:17.643Z,11.02
2022-11-14T07:25:02.973Z,11.06
2022-11-14T07:27:48.505Z,11.09
2022-11-14T07:30:34.410Z,11.16
2022-11-14T07:33:19.668Z,11.21
2022-11-14T07:36:05.475Z,11.31
2022-11-14T07:38:50.999Z,11.30
2022-11-14T07:41:36.615Z,11.29
2022-11-14T07:44:21.714Z,11.38
2022-11-14T07:47:07.004Z,11.39
2022-11-14T07:49:52.202Z,11.47
2022-11-14T07:52:37.444Z,11.46
2022-11-14T07:55:23.262Z,11.43
2022-11-14T07:58:08.621Z,11.57
2022-11-14T08:00:54.204Z,11.65
2022-11-14T08:03:45.035Z,11.71
2022-11-14T08:06:31.160Z,11.69
2022-11-14T08:09:16.281Z,11.75
2022-11-14T08:12:02.160Z,11.75
2022-11-14T08:14:47.181Z,11.78
2022-11-14T08:17:32.462Z,11.91
2022-11-14T08:20:17.582Z,11.95
2022-11-14T08:23:04.799Z,11.99
2022-11-14T08:25:50.751Z,11.96
2022-11-14T08:28:36.318Z,11.89
2022-11-14T08:31:22.140Z,11.88
2022-11-14T08:34:07.336Z,11.88
2022-11-14T08:36:52.541Z,12.00
2022-11-14T08:39:37.655Z,12.03
2022-11-14T08:42:23.112Z,12.03
2022-11-14T08:45:08.852Z,12.03
2022-11-14T08:47:54.330Z,12.13
2022-11-14T08:50:39.967Z,12.16
2022-11-14T08:53:25.447Z,12.18
2022-11-14T08:56:11.597Z,12.23
2022-11-14T08:58:57.127Z,12.27
2022-11-14T09:01:42.852Z,12.24
2022-11-14T09:04:28.578Z,12.14
2022-11-14T09:07:14.458Z,12.25
2022-11-14T09:09:59.739Z,12.24
2022-11-14T09:12:45.185Z,12.31
2022-11-14T09:15:31.126Z,12.37
2022-11-14T09:18:16.668Z,12.38
2022-11-14T09:21:04.248Z,12.40
2022-11-14T09:23:49.420Z,12.46
2022-11-14T09:26:34.867Z,12.41
2022-11-14T09:29:20.630Z,12.41
2022-11-14T09:32:05.859Z,12.43
2022-11-14T09:34:52.120Z,12.42
2022-11-14T09:37:37.174Z,12.50
2022-11-14T09:40:22.417Z,12.57
2022-11-14T09:43:24.696Z,12.66
2022-11-14T09:46:19.698Z,12.78
2022-11-14T09:49:11.540Z,12.83
2022-11-14T09:52:24.615Z,12.89
2022-11-14T09:55:13.599Z,12.84
2022-11-14T09:58:00.978Z,12.81
2022-11-14T10:01:34.347Z,12.75
2022-11-14T10:04:40.863Z,12.66
2022-11-14T10:07:50.152Z,12.73
2022-11-14T10:10:51.073Z,12.84
2022-11-14T10:13:47.625Z,12.79
2022-11-14T10:16:43.151Z,12.79
2022-11-14T10:19:39.997Z,12.68
2022-11-14T10:23:00.088Z,12.71
2022-11-14T10:25:51.722Z,12.77
2022-11-14T10:28:50.648Z,12.84
2022-11-14T10:31:41.726Z,12.88
2022-11-14T10:35:00.568Z,13.05
2022-11-14T10:38:12.280Z,13.16
2022-11-14T10:41:04.798Z,13.25
2022-11-14T10:43:51.799Z,13.40
2022-11-14T10:46:42.004Z,13.48
2022-11-14T10:49:36.012Z,13.51
2022-11-14T10:52:31.184Z,13.54
2022-11-14T10:55:18.481Z,13.53
2022-11-14T10:58:10.395Z,13.57
2022-11-14T11:00:55.916Z,13.68
2022-11-14T11:03:43.030Z,13.85
2022-11-14T11:06:29.316Z,13.96
2022-11-14T11:09:46.033Z,14.03
2022-11-14T11:12:37.131Z,14.07
2022-11-14T11:15:27.924Z,14.12
2022-11-14T11:18:32.368Z,14.11
2022-11-14T11:21:20.662Z,14.12
2022-11-14T11:24:06.401Z,14.03
2022-11-14T11:27:14.434Z,14.03
2022-11-14T11:30:19.883Z,14.05
2022-11-14T11:33:29.999Z,14.02
2022-11-14T11:36:18.826Z,14.12
2022-11-14T11:39:04.381Z,14.15
2022-11-14T11:45:00.302Z,14.16
2022-11-14T11:47:53.935Z,14.17
2022-11-14T11:50:40.276Z,14.17
2022-11-14T11:53:58.364Z,14.19
2022-11-14T11:56:47.812Z,14.24
2022-11-14T11:59:45.570Z,14.27
2022-11-14T12:02:31.498Z,14.25
2022-11-14T12:05:33.181Z,14.17
2022-11-14T12:08:47.805Z,14.19
2022-11-14T12:11:37.406Z,14.14
2022-11-14T12:15:12.398Z,14.12
2022-11-14T12:18:16.237Z,14.32
2022-11-14T12:21:07.103Z,14.50
2022-11-14T12:23:58.389Z,14.54
2022-11-14T12:26:58.916Z,14.79
2022-11-14T12:30:14.143Z,15.02
2022-11-14T12:33:22.581Z,15.23
2022-11-14T12:36:12.813Z,15.30
2022-11-14T12:38:59.610Z,15.32
2022-11-14T12:41:45.135Z,15.38
2022-11-14T12:44:30.688Z,15.46
2022-11-14T12:47:24.305Z,15.49
2022-11-14T12:50:40.287Z,15.60
2022-11-14T12:53:37.145Z,15.72
2022-11-14T12:56:31.186Z,15.77
2022-11-14T12:59:26.446Z,15.82
2022-11-14T13:02:43.974Z,15.87
2022-11-14T13:06:17.451Z,15.89
2022-11-14T13:09:21.219Z,15.84
2022-11-14T13:12:45.580Z,15.66
2022-11-14T13:16:07.075Z,15.53
2022-11-14T13:19:12.199Z,15.22
2022-11-14T13:22:35.359Z,15.23
2022-11-14T13:25:22.658Z,15.17
2022-11-14T13:28:38.803Z,15.21
2022-11-14T13:31:41.983Z,15.01
2022-11-14T13:34:49.312Z,15.05
2022-11-14T13:37:46.485Z,15.10
2022-11-14T13:40:44.896Z,15.09
2022-11-14T13:44:12.042Z,15.10
2022-11-14T13:47:27.871Z,15.00
2022-11-14T13:50:18.802Z,14.94
2022-11-14T13:53:14.480Z,14.89
2022-11-14T13:56:07.032Z,14.91
2022-11-14T13:59:16.625Z,14.69
2022-11-14T14:02:08.308Z,14.68
2022-11-14T14:05:19.253Z,14.64
2022-11-14T14:08:16.639Z,14.55
2022-11-14T14:11:20.829Z,14.60
2022-11-14T14:14:18.220Z,14.59
2022-11-14T14:17:21.721Z,14.38
2022-11-14T14:20:39.768Z,14.40
2022-11-14T14:23:56.309Z,14.38
2022-11-14T14:27:16.498Z,14.45
2022-11-14T14:30:15.562Z,14.53
2022-11-14T14:33:11.599Z,14.53
2022-11-14T14:35:57.202Z,14.55
2022-11-14T14:38:42.551Z,14.59
2022-11-14T14:41:31.977Z,14.65
2022-11-14T14:44:25.365Z,14.67
2022-11-14T14:47:28.939Z,14.77
2022-11-14T14:50:49.084Z,14.72
2022-11-14T14:53:35.873Z,14.67
2022-11-14T14:56:24.901Z,14.70
2022-11-14T14:59:18.240Z,14.80
2022-11-14T15:02:08.504Z,14.82
2022-11-14T15:04:55.351Z,14.76
2022-11-14T15:07:40.832Z,14.77
2022-11-14T15:10:30.150Z,14.71
2022-11-14T15:13:18.045Z,14.75
2022-11-14T15:16:05.454Z,14.80
2022-11-14T15:18:52.328Z,14.82
2022-11-14T15:21:37.482Z,14.84
2022-11-14T15:24:23.944Z,14.77
2022-11-14T15:27:15.117Z,14.81
2022-11-14T15:30:06.865Z,14.87
2022-11-14T15:32:54.948Z,14.81
2022-11-14T15:35:40.692Z,14.86
2022-11-14T15:41:33.385Z,14.88
2022-11-14T15:44:33.081Z,14.95
2022-11-14T15:47:29.697Z,14.94
2022-11-14T15:50:14.722Z,14.95
2022-11-14T15:53:06.487Z,14.96
2022-11-14T15:55:51.627Z,14.94
2022-11-14T15:58:36.758Z,14.95
2022-11-14T16:01:28.171Z,14.89
2022-11-14T16:04:21.420Z,14.86
2022-11-14T16:07:06.726Z,14.82
2022-11-14T16:09:52.379Z,14.83
2022-11-14T16:12:37.576Z,14.78
2022-11-14T16:15:22.666Z,14.75
2022-11-14T16:18:08.062Z,14.80
2022-11-14T16:20:58.574Z,14.81
2022-11-14T16:23:44.072Z,14.80
2022-11-14T16:26:30.235Z,14.79
2022-11-14T16:29:16.232Z,14.75
2022-11-14T16:32:02.989Z,14.68
2022-11-14T16:34:48.290Z,14.66
2022-11-14T16:37:33.249Z,14.63
2022-11-14T16:40:22.901Z,14.66
2022-11-14T16:43:13.576Z,14.68
2022-11-14T16:46:03.764Z,14.68
2022-11-14T16:48:49.170Z,14.68
2022-11-14T16:51:50.853Z,14.65
2022-11-14T16:54:36.522Z,14.62
2022-11-14T16:57:22.050Z,14.62
2022-11-14T17:00:10.923Z,14.63
2022-11-14T17:02:56.726Z,14.66
2022-11-14T17:05:50.549Z,14.66
2022-11-14T17:08:36.070Z,14.67
2022-11-14T17:11:21.614Z,14.72
2022-11-14T17:14:07.012Z,14.70
2022-11-14T17:16:52.623Z,14.74
2022-11-14T17:19:45.529Z,14.75
2022-11-14T17:22:30.789Z,14.74
2022-11-14T17:25:15.962Z,14.72
2022-11-14T17:28:01.021Z,14.71
2022-11-14T17:30:46.185Z,14.72
2022-11-14T17:33:31.628Z,14.72
2022-11-14T17:36:18.066Z,14.69
2022-11-14T17:39:03.692Z,14.70
2022-11-14T17:41:49.170Z,14.66
2022-11-14T17:44:34.597Z,14.71
2022-11-14T17:47:20.623Z,14.74
2022-11-14T17:50:06.346Z,14.75
2022-11-14T17:52:51.243Z,14.82
2022-11-14T17:55:36.738Z,14.89
2022-11-14T17:58:22.154Z,14.91
2022-11-14T18:01:12.045Z,14.90
2022-11-14T18:04:01.659Z,14.88
2022-11-14T18:06:50.446Z,14.90
2022-11-14T18:09:35.586Z,14.86
2022-11-14T18:12:20.656Z,14.89
2022-11-14T18:15:06.760Z,14.87
2022-11-14T18:17:52.135Z,14.84
2022-11-14T18:20:37.956Z,14.83
2022-11-14T18:23:23.390Z,14.83
2022-11-14T18:26:13.688Z,14.88
2022-11-14T18:29:02.492Z,14.82
2022-11-14T18:31:48.275Z,14.84
2022-11-14T18:34:36.715Z,14.88
2022-11-14T18:37:22.454Z,14.88
2022-11-14T18:40:10.957Z,14.95
2022-11-14T18:43:02.418Z,14.98
2022-11-14T18:45:47.512Z,14.98
2022-11-14T18:48:33.296Z,14.97
2022-11-14T18:51:21.437Z,14.95
2022-11-14T18:54:09.252Z,14.87
2022-11-14T18:56:54.366Z,14.86
2022-11-14T18:59:39.559Z,14.88
2022-11-14T19:02:24.950Z,14.82
2022-11-14T19:05:09.913Z,14.79
2022-11-14T19:07:55.114Z,14.82
2022-11-14T19:10:40.357Z,14.87
2022-11-14T19:13:25.729Z,14.87
2022-11-14T19:16:10.818Z,14.87
2022-11-14T19:18:56.016Z,14.87
2022-11-14T19:21:41.564Z,14.89
2022-11-14T19:24:27.647Z,14.95
2022-11-14T19:27:14.709Z,14.93
2022-11-14T19:30:00.012Z,14.94
2022-11-14T19:32:46.853Z,14.94
2022-11-14T19:35:31.923Z,14.96
2022-11-14T19:38:17.317Z,15.02
2022-11-14T19:41:12.463Z,15.04
2022-11-14T19:43:59.196Z,15.05
2022-11-14T19:46:47.580Z,15.08
2022-11-14T19:49:33.251Z,15.06
2022-11-14T20:01:36.776Z,15.23
2022-11-14T20:04:22.945Z,15.25
2022-11-14T20:07:08.076Z,15.28
2022-11-14T20:09:53.287Z,15.35
2022-11-14T20:12:38.440Z,15.41
2022-11-14T20:15:24.194Z,15.44
2022-11-14T20:18:09.680Z,15.45
2022-11-14T20:20:57.890Z,15.52
2022-11-14T20:23:43.563Z,15.55
2022-11-14T20:26:28.864Z,15.66
2022-11-14T20:29:14.080Z,15.63
2022-11-14T20:31:59.471Z,15.64
2022-11-14T20:34:44.656Z,15.61
2022-11-14T20:37:29.776Z,15.66
2022-11-14T20:40:15.313Z,15.48
2022-11-14T20:43:02.502Z,15.49
2022-11-14T20:46:00.978Z,15.53
2022-11-14T20:48:47.352Z,15.57
2022-11-14T20:51:33.360Z,15.56
2022-11-14T20:54:18.966Z,15.63
2022-11-14T20:57:04.249Z,15.56
2022-11-14T20:59:49.617Z,15.58
2022-11-14T21:02:35.264Z,15.49
2022-11-14T21:05:20.373Z,15.25
2022-11-14T21:08:05.816Z,15.44
2022-11-14T21:10:58.739Z,15.46
2022-11-14T21:13:56.386Z,15.42
2022-11-14T21:16:41.582Z,15.37
2022-11-14T21:19:29.219Z,15.34
2022-11-14T21:22:15.020Z,15.32
2022-11-14T21:25:00.564Z,15.28
2022-11-14T21:27:46.162Z,15.29
2022-11-14T21:30:32.290Z,15.27
2022-11-14T21:33:17.607Z,15.34
2022-11-14T21:36:30.249Z,15.31
2022-11-14T21:39:16.339Z,15.34
2022-11-14T21:42:02.198Z,15.31
2022-11-14T21:44:47.644Z,15.27
2022-11-14T21:47:34.057Z,15.29
2022-11-14T21:50:19.203Z,15.32
2022-11-14T21:53:15.614Z,15.27
2022-11-14T21:56:19.774Z,15.27
2022-11-14T21:59:12.644Z,15.29
2022-11-14T22:02:17.237Z,15.31
2022-11-14T22:05:02.793Z,15.26
2022-11-14T22:07:47.816Z,15.30
2022-11-14T22:10:33.225Z,15.29
2022-11-14T22:13:18.751Z,15.36
2022-11-14T22:16:05.507Z,15.39
2022-11-14T22:18:56.304Z,15.34
2022-11-14T22:21:43.459Z,15.33
2022-11-14T22:24:28.581Z,15.36
2022-11-14T22:27:13.872Z,15.38
2022-11-14T22:29:58.969Z,15.40
2022-11-14T22:32:44.326Z,15.40
2022-11-14T22:35:29.663Z,15.42
2022-11-14T22:38:15.072Z,15.43
2022-11-14T22:41:01.741Z,15.40
2022-11-14T22:43:47.150Z,15.41
2022-11-14T22:46:32.669Z,15.40
2022-11-14T22:49:21.059Z,15.45
2022-11-14T22:52:06.687Z,15.46
2022-11-14T22:54:51.829Z,15.43
2022-11-14T22:57:37.297Z,15.47
2022-11-14T23:00:22.537Z,15.47
2022-11-14T23:03:07.839Z,15.51
2022-11-14T23:05:53.158Z,15.48
2022-11-14T23:08:38.937Z,15.48
2022-11-14T23:11:27.225Z,15.52
2022-11-14T23:14:14.133Z,15.52
2022-11-14T23:16:59.699Z,15.60
2022-11-14T23:19:45.242Z,15.55
2022-11-14T23:22:30.365Z,15.57
2022-11-14T23:25:15.913Z,15.59
2022-11-14T23:28:01.772Z,15.64
2022-11-14T23:30:46.902Z,15.65
2022-11-14T23:33:33.168Z,15.66
2022-11-14T23:36:18.426Z,15.64
2022-11-14T23:39:03.961Z,15.66
2022-11-14T23:41:49.084Z,15.68
2022-11-14T23:44:34.565Z,15.71
2022-11-14T23:47:19.582Z,15.64
2022-11-14T23:50:05.199Z,15.72
2022-11-14T23:52:50.566Z,15.75
2022-11-14T23:55:35.952Z,15.74
2022-11-14T23:58:23.091Z,15.73
